sensor_id;sensor_type;location;lat;lon;timestamp;pressure;altitude;pressure_sealevel;temperature
64960;BMP180;51487;52.266;10.542;2022-12-05T00:03:58;100766.00;;;1.70
64960;BMP180;51487;52.266;10.542;2022-12-05T00:06:26;100771.00;;;1.80
64960;BMP180;51487;52.266;10.542;2022-12-05T00:08:54;100764.00;;;1.80
64960;BMP180;51487;52.266;10.542;2022-12-05T00:11:24;100763.00;;;1.80
64960;BMP180;51487;52.266;10.542;2022-12-05T00:13:53;100769.00;;;1.80
64960;BMP180;51487;52.266;10.542;2022-12-05T00:16:22;100754.00;;;1.70
64960;BMP180;51487;52.266;10.542;2022-12-05T00:18:51;100766.00;;;1.80
64960;BMP180;51487;52.266;10.542;2022-12-05T00:21:20;100759.00;;;1.80
64960;BMP180;51487;52.266;10.542;2022-12-05T00:23:49;100759.00;;;1.80
64960;BMP180;51487;52.266;10.542;2022-12-05T00:26:15;100760.00;;;1.80
64960;BMP180;51487;52.266;10.542;2022-12-05T00:28:41;100758.00;;;1.90
64960;BMP180;51487;52.266;10.542;2022-12-05T00:31:13;100753.00;;;1.90
64960;BMP180;51487;52.266;10.542;2022-12-05T00:33:43;100753.00;;;1.90
64960;BMP180;51487;52.266;10.542;2022-12-05T00:36:17;100763.00;;;2.00
64960;BMP180;51487;52.266;10.542;2022-12-05T00:38:44;100765.00;;;1.90
64960;BMP180;51487;52.266;10.542;2022-12-05T00:41:13;100756.00;;;1.80
64960;BMP180;51487;52.266;10.542;2022-12-05T00:43:40;100760.00;;;1.80
64960;BMP180;51487;52.266;10.542;2022-12-05T00:46:08;100754.00;;;1.90
64960;BMP180;51487;52.266;10.542;2022-12-05T00:48:36;100751.00;;;1.80
64960;BMP180;51487;52.266;10.542;2022-12-05T00:51:08;100752.00;;;1.70
64960;BMP180;51487;52.266;10.542;2022-12-05T00:53:39;100760.00;;;1.90
64960;BMP180;51487;52.266;10.542;2022-12-05T00:56:16;100760.00;;;2.00
64960;BMP180;51487;52.266;10.542;2022-12-05T00:58:44;100750.00;;;1.80
64960;BMP180;51487;52.266;10.542;2022-12-05T01:01:13;100759.00;;;1.90
64960;BMP180;51487;52.266;10.542;2022-12-05T01:03:42;100766.00;;;1.90
64960;BMP180;51487;52.266;10.542;2022-12-05T01:06:08;100754.00;;;1.80
64960;BMP180;51487;52.266;10.542;2022-12-05T01:08:35;100764.00;;;1.70
64960;BMP180;51487;52.266;10.542;2022-12-05T01:11:01;100762.00;;;1.80
64960;BMP180;51487;52.266;10.542;2022-12-05T01:13:29;100767.00;;;1.60
64960;BMP180;51487;52.266;10.542;2022-12-05T01:15:55;100760.00;;;1.70
64960;BMP180;51487;52.266;10.542;2022-12-05T01:18:22;100760.00;;;1.80
64960;BMP180;51487;52.266;10.542;2022-12-05T01:20:50;100755.00;;;1.90
64960;BMP180;51487;52.266;10.542;2022-12-05T01:23:16;100768.00;;;1.80
64960;BMP180;51487;52.266;10.542;2022-12-05T01:25:44;100772.00;;;2.00
64960;BMP180;51487;52.266;10.542;2022-12-05T01:28:11;100759.00;;;1.90
64960;BMP180;51487;52.266;10.542;2022-12-05T01:30:39;100767.00;;;1.90
64960;BMP180;51487;52.266;10.542;2022-12-05T01:33:07;100762.00;;;1.90
64960;BMP180;51487;52.266;10.542;2022-12-05T01:35:34;100770.00;;;2.00
64960;BMP180;51487;52.266;10.542;2022-12-05T01:38:01;100766.00;;;1.90
64960;BMP180;51487;52.266;10.542;2022-12-05T01:40:28;100762.00;;;1.90
64960;BMP180;51487;52.266;10.542;2022-12-05T01:42:53;100769.00;;;2.00
64960;BMP180;51487;52.266;10.542;2022-12-05T01:45:32;100770.00;;;2.00
64960;BMP180;51487;52.266;10.542;2022-12-05T01:48:09;100758.00;;;1.90
64960;BMP180;51487;52.266;10.542;2022-12-05T01:50:40;100760.00;;;1.90
64960;BMP180;51487;52.266;10.542;2022-12-05T01:53:06;100759.00;;;1.90
64960;BMP180;51487;52.266;10.542;2022-12-05T01:55:33;100764.00;;;2.00
64960;BMP180;51487;52.266;10.542;2022-12-05T01:58:00;100758.00;;;2.00
64960;BMP180;51487;52.266;10.542;2022-12-05T02:00:28;100751.00;;;1.70
64960;BMP180;51487;52.266;10.542;2022-12-05T02:03:00;100760.00;;;1.80
64960;BMP180;51487;52.266;10.542;2022-12-05T02:05:32;100762.00;;;1.80
64960;BMP180;51487;52.266;10.542;2022-12-05T02:08:01;100767.00;;;1.90
64960;BMP180;51487;52.266;10.542;2022-12-05T02:10:47;100757.00;;;2.00
64960;BMP180;51487;52.266;10.542;2022-12-05T02:16:36;100756.00;;;2.10
64960;BMP180;51487;52.266;10.542;2022-12-05T02:19:49;100766.00;;;2.10
64960;BMP180;51487;52.266;10.542;2022-12-05T02:28:16;100755.00;;;2.00
64960;BMP180;51487;52.266;10.542;2022-12-05T02:31:32;100762.00;;;2.00
64960;BMP180;51487;52.266;10.542;2022-12-05T02:34:30;100757.00;;;2.00
64960;BMP180;51487;52.266;10.542;2022-12-05T02:42:32;100745.00;;;2.00
64960;BMP180;51487;52.266;10.542;2022-12-05T02:45:08;100744.00;;;2.00
64960;BMP180;51487;52.266;10.542;2022-12-05T02:47:45;100736.00;;;2.00
64960;BMP180;51487;52.266;10.542;2022-12-05T02:50:17;100741.00;;;1.90
64960;BMP180;51487;52.266;10.542;2022-12-05T02:52:47;100737.00;;;1.90
64960;BMP180;51487;52.266;10.542;2022-12-05T02:55:15;100735.00;;;1.80
64960;BMP180;51487;52.266;10.542;2022-12-05T02:57:47;100734.00;;;2.00
64960;BMP180;51487;52.266;10.542;2022-12-05T03:00:16;100732.00;;;1.90
64960;BMP180;51487;52.266;10.542;2022-12-05T03:02:42;100738.00;;;1.90
64960;BMP180;51487;52.266;10.542;2022-12-05T03:08:05;100738.00;;;1.90
64960;BMP180;51487;52.266;10.542;2022-12-05T03:10:35;100742.00;;;2.00
64960;BMP180;51487;52.266;10.542;2022-12-05T03:13:09;100742.00;;;1.90
64960;BMP180;51487;52.266;10.542;2022-12-05T03:15:45;100740.00;;;1.90
64960;BMP180;51487;52.266;10.542;2022-12-05T03:18:28;100743.00;;;1.80
64960;BMP180;51487;52.266;10.542;2022-12-05T03:24:06;100745.00;;;2.00
64960;BMP180;51487;52.266;10.542;2022-12-05T03:29:50;100739.00;;;2.00
64960;BMP180;51487;52.266;10.542;2022-12-05T03:38:13;100734.00;;;1.80
64960;BMP180;51487;52.266;10.542;2022-12-05T03:41:04;100729.00;;;2.00
64960;BMP180;51487;52.266;10.542;2022-12-05T03:49:08;100733.00;;;2.10
64960;BMP180;51487;52.266;10.542;2022-12-05T03:51:52;100736.00;;;2.10
64960;BMP180;51487;52.266;10.542;2022-12-05T03:54:26;100732.00;;;2.00
64960;BMP180;51487;52.266;10.542;2022-12-05T04:00:20;100731.00;;;2.10
64960;BMP180;51487;52.266;10.542;2022-12-05T04:03:07;100736.00;;;2.10
64960;BMP180;51487;52.266;10.542;2022-12-05T04:05:44;100730.00;;;2.10
64960;BMP180;51487;52.266;10.542;2022-12-05T04:08:33;100734.00;;;2.00
64960;BMP180;51487;52.266;10.542;2022-12-05T04:11:06;100743.00;;;2.00
64960;BMP180;51487;52.266;10.542;2022-12-05T04:13:41;100728.00;;;2.00
64960;BMP180;51487;52.266;10.542;2022-12-05T04:16:39;100721.00;;;1.90
64960;BMP180;51487;52.266;10.542;2022-12-05T04:19:47;100731.00;;;1.90
64960;BMP180;51487;52.266;10.542;2022-12-05T04:22:42;100725.00;;;1.90
64960;BMP180;51487;52.266;10.542;2022-12-05T04:25:11;100725.00;;;1.90
64960;BMP180;51487;52.266;10.542;2022-12-05T04:28:20;100729.00;;;2.00
64960;BMP180;51487;52.266;10.542;2022-12-05T04:31:15;100735.00;;;1.90
64960;BMP180;51487;52.266;10.542;2022-12-05T04:33:51;100735.00;;;1.90
64960;BMP180;51487;52.266;10.542;2022-12-05T04:36:37;100735.00;;;1.90
64960;BMP180;51487;52.266;10.542;2022-12-05T04:39:20;100733.00;;;1.80
64960;BMP180;51487;52.266;10.542;2022-12-05T04:41:56;100735.00;;;1.80
64960;BMP180;51487;52.266;10.542;2022-12-05T04:44:31;100737.00;;;1.90
64960;BMP180;51487;52.266;10.542;2022-12-05T04:47:03;100741.00;;;1.90
64960;BMP180;51487;52.266;10.542;2022-12-05T04:49:32;100742.00;;;1.70
64960;BMP180;51487;52.266;10.542;2022-12-05T04:52:03;100743.00;;;1.80
64960;BMP180;51487;52.266;10.542;2022-12-05T04:54:37;100748.00;;;1.80
64960;BMP180;51487;52.266;10.542;2022-12-05T04:57:14;100746.00;;;1.80
64960;BMP180;51487;52.266;10.542;2022-12-05T04:59:43;100740.00;;;1.70
64960;BMP180;51487;52.266;10.542;2022-12-05T05:02:12;100738.00;;;1.60
64960;BMP180;51487;52.266;10.542;2022-12-05T05:04:50;100742.00;;;1.50
64960;BMP180;51487;52.266;10.542;2022-12-05T05:07:19;100743.00;;;1.60
64960;BMP180;51487;52.266;10.542;2022-12-05T05:09:45;100740.00;;;1.50
64960;BMP180;51487;52.266;10.542;2022-12-05T05:12:12;100738.00;;;1.40
64960;BMP180;51487;52.266;10.542;2022-12-05T05:14:37;100744.00;;;1.30
64960;BMP180;51487;52.266;10.542;2022-12-05T05:17:03;100739.00;;;1.20
64960;BMP180;51487;52.266;10.542;2022-12-05T05:19:29;100743.00;;;1.20
64960;BMP180;51487;52.266;10.542;2022-12-05T05:21:54;100745.00;;;1.10
64960;BMP180;51487;52.266;10.542;2022-12-05T05:24:20;100744.00;;;1.20
64960;BMP180;51487;52.266;10.542;2022-12-05T05:26:48;100740.00;;;1.30
64960;BMP180;51487;52.266;10.542;2022-12-05T05:29:14;100749.00;;;1.20
64960;BMP180;51487;52.266;10.542;2022-12-05T05:31:41;100749.00;;;1.20
64960;BMP180;51487;52.266;10.542;2022-12-05T05:34:07;100744.00;;;1.30
64960;BMP180;51487;52.266;10.542;2022-12-05T05:36:33;100743.00;;;1.30
64960;BMP180;51487;52.266;10.542;2022-12-05T05:39:00;100746.00;;;1.30
64960;BMP180;51487;52.266;10.542;2022-12-05T05:41:32;100740.00;;;1.10
64960;BMP180;51487;52.266;10.542;2022-12-05T05:44:00;100748.00;;;1.20
64960;BMP180;51487;52.266;10.542;2022-12-05T05:46:28;100746.00;;;1.30
64960;BMP180;51487;52.266;10.542;2022-12-05T05:48:55;100745.00;;;1.40
64960;BMP180;51487;52.266;10.542;2022-12-05T05:51:21;100755.00;;;1.50
64960;BMP180;51487;52.266;10.542;2022-12-05T05:53:49;100750.00;;;1.60
64960;BMP180;51487;52.266;10.542;2022-12-05T05:56:17;100760.00;;;1.60
64960;BMP180;51487;52.266;10.542;2022-12-05T05:58:44;100750.00;;;1.60
64960;BMP180;51487;52.266;10.542;2022-12-05T06:01:12;100749.00;;;1.60
64960;BMP180;51487;52.266;10.542;2022-12-05T06:03:44;100743.00;;;1.60
64960;BMP180;51487;52.266;10.542;2022-12-05T06:06:13;100743.00;;;1.30
64960;BMP180;51487;52.266;10.542;2022-12-05T06:08:41;100747.00;;;1.30
64960;BMP180;51487;52.266;10.542;2022-12-05T06:11:18;100743.00;;;1.40
64960;BMP180;51487;52.266;10.542;2022-12-05T06:13:48;100746.00;;;1.40
64960;BMP180;51487;52.266;10.542;2022-12-05T06:16:15;100745.00;;;1.40
64960;BMP180;51487;52.266;10.542;2022-12-05T06:18:41;100749.00;;;1.50
64960;BMP180;51487;52.266;10.542;2022-12-05T06:21:07;100745.00;;;1.40
64960;BMP180;51487;52.266;10.542;2022-12-05T06:23:34;100747.00;;;1.40
64960;BMP180;51487;52.266;10.542;2022-12-05T06:26:01;100755.00;;;1.40
64960;BMP180;51487;52.266;10.542;2022-12-05T06:28:27;100751.00;;;1.40
64960;BMP180;51487;52.266;10.542;2022-12-05T06:30:52;100749.00;;;1.40
64960;BMP180;51487;52.266;10.542;2022-12-05T06:33:18;100752.00;;;1.40
64960;BMP180;51487;52.266;10.542;2022-12-05T06:35:45;100743.00;;;1.40
64960;BMP180;51487;52.266;10.542;2022-12-05T06:38:10;100758.00;;;1.30
64960;BMP180;51487;52.266;10.542;2022-12-05T06:40:40;100751.00;;;1.40
64960;BMP180;51487;52.266;10.542;2022-12-05T06:43:07;100744.00;;;1.40
64960;BMP180;51487;52.266;10.542;2022-12-05T06:45:32;100751.00;;;1.40
64960;BMP180;51487;52.266;10.542;2022-12-05T06:47:58;100755.00;;;1.30
64960;BMP180;51487;52.266;10.542;2022-12-05T06:50:23;100761.00;;;1.30
64960;BMP180;51487;52.266;10.542;2022-12-05T06:52:50;100762.00;;;1.30
64960;BMP180;51487;52.266;10.542;2022-12-05T06:55:15;100762.00;;;1.30
64960;BMP180;51487;52.266;10.542;2022-12-05T06:57:41;100764.00;;;1.30
64960;BMP180;51487;52.266;10.542;2022-12-05T07:00:07;100763.00;;;1.30
64960;BMP180;51487;52.266;10.542;2022-12-05T07:02:52;100760.00;;;1.30
64960;BMP180;51487;52.266;10.542;2022-12-05T07:05:18;100769.00;;;1.40
64960;BMP180;51487;52.266;10.542;2022-12-05T07:07:44;100767.00;;;1.30
64960;BMP180;51487;52.266;10.542;2022-12-05T07:10:10;100768.00;;;1.30
64960;BMP180;51487;52.266;10.542;2022-12-05T07:12:36;100767.00;;;1.20
64960;BMP180;51487;52.266;10.542;2022-12-05T07:15:02;100770.00;;;1.20
64960;BMP180;51487;52.266;10.542;2022-12-05T07:17:28;100774.00;;;1.20
64960;BMP180;51487;52.266;10.542;2022-12-05T07:19:53;100775.00;;;1.20
64960;BMP180;51487;52.266;10.542;2022-12-05T07:22:21;100769.00;;;1.30
64960;BMP180;51487;52.266;10.542;2022-12-05T07:24:49;100777.00;;;1.40
64960;BMP180;51487;52.266;10.542;2022-12-05T07:27:15;100775.00;;;1.40
64960;BMP180;51487;52.266;10.542;2022-12-05T07:29:41;100781.00;;;1.40
64960;BMP180;51487;52.266;10.542;2022-12-05T07:32:07;100777.00;;;1.20
64960;BMP180;51487;52.266;10.542;2022-12-05T07:34:32;100778.00;;;1.30
64960;BMP180;51487;52.266;10.542;2022-12-05T07:36:58;100781.00;;;1.40
64960;BMP180;51487;52.266;10.542;2022-12-05T07:39:25;100788.00;;;1.30
64960;BMP180;51487;52.266;10.542;2022-12-05T07:41:50;100788.00;;;1.20
64960;BMP180;51487;52.266;10.542;2022-12-05T07:44:16;100791.00;;;1.30
64960;BMP180;51487;52.266;10.542;2022-12-05T07:46:41;100792.00;;;1.40
64960;BMP180;51487;52.266;10.542;2022-12-05T07:49:07;100783.00;;;1.30
64960;BMP180;51487;52.266;10.542;2022-12-05T07:51:33;100794.00;;;1.40
64960;BMP180;51487;52.266;10.542;2022-12-05T07:54:00;100785.00;;;1.40
64960;BMP180;51487;52.266;10.542;2022-12-05T07:56:26;100795.00;;;1.50
64960;BMP180;51487;52.266;10.542;2022-12-05T07:58:52;100788.00;;;1.50
64960;BMP180;51487;52.266;10.542;2022-12-05T08:01:20;100792.00;;;1.60
64960;BMP180;51487;52.266;10.542;2022-12-05T08:03:52;100793.00;;;1.60
64960;BMP180;51487;52.266;10.542;2022-12-05T08:06:26;100798.00;;;1.50
64960;BMP180;51487;52.266;10.542;2022-12-05T08:08:52;100792.00;;;1.60
64960;BMP180;51487;52.266;10.542;2022-12-05T08:11:30;100787.00;;;1.40
64960;BMP180;51487;52.266;10.542;2022-12-05T08:13:59;100791.00;;;1.50
64960;BMP180;51487;52.266;10.542;2022-12-05T08:16:27;100797.00;;;1.60
64960;BMP180;51487;52.266;10.542;2022-12-05T08:18:55;100793.00;;;1.50
64960;BMP180;51487;52.266;10.542;2022-12-05T08:21:22;100799.00;;;1.50
64960;BMP180;51487;52.266;10.542;2022-12-05T08:23:49;100797.00;;;1.50
64960;BMP180;51487;52.266;10.542;2022-12-05T08:26:18;100791.00;;;1.50
64960;BMP180;51487;52.266;10.542;2022-12-05T08:28:49;100786.00;;;1.40
64960;BMP180;51487;52.266;10.542;2022-12-05T08:31:18;100791.00;;;1.60
64960;BMP180;51487;52.266;10.542;2022-12-05T08:33:45;100784.00;;;1.60
64960;BMP180;51487;52.266;10.542;2022-12-05T08:36:13;100786.00;;;1.70
64960;BMP180;51487;52.266;10.542;2022-12-05T08:38:43;100796.00;;;1.70
64960;BMP180;51487;52.266;10.542;2022-12-05T08:41:11;100797.00;;;1.70
64960;BMP180;51487;52.266;10.542;2022-12-05T08:43:39;100807.00;;;1.70
64960;BMP180;51487;52.266;10.542;2022-12-05T08:46:05;100798.00;;;1.80
64960;BMP180;51487;52.266;10.542;2022-12-05T08:48:32;100797.00;;;1.80
64960;BMP180;51487;52.266;10.542;2022-12-05T08:50:59;100788.00;;;1.80
64960;BMP180;51487;52.266;10.542;2022-12-05T08:53:33;100803.00;;;1.70
64960;BMP180;51487;52.266;10.542;2022-12-05T08:56:04;100804.00;;;1.70
64960;BMP180;51487;52.266;10.542;2022-12-05T08:58:31;100801.00;;;1.70
64960;BMP180;51487;52.266;10.542;2022-12-05T09:03:31;100808.00;;;1.60
64960;BMP180;51487;52.266;10.542;2022-12-05T09:08:43;100804.00;;;1.60
64960;BMP180;51487;52.266;10.542;2022-12-05T09:11:17;100810.00;;;1.60
64960;BMP180;51487;52.266;10.542;2022-12-05T09:13:45;100804.00;;;1.70
64960;BMP180;51487;52.266;10.542;2022-12-05T09:16:17;100804.00;;;1.80
64960;BMP180;51487;52.266;10.542;2022-12-05T09:18:48;100814.00;;;1.70
64960;BMP180;51487;52.266;10.542;2022-12-05T09:21:19;100809.00;;;1.70
64960;BMP180;51487;52.266;10.542;2022-12-05T09:23:47;100815.00;;;1.80
64960;BMP180;51487;52.266;10.542;2022-12-05T09:26:15;100813.00;;;1.80
64960;BMP180;51487;52.266;10.542;2022-12-05T09:28:42;100805.00;;;1.60
64960;BMP180;51487;52.266;10.542;2022-12-05T09:31:11;100806.00;;;1.60
64960;BMP180;51487;52.266;10.542;2022-12-05T09:33:38;100808.00;;;1.60
64960;BMP180;51487;52.266;10.542;2022-12-05T09:36:05;100808.00;;;1.60
64960;BMP180;51487;52.266;10.542;2022-12-05T09:38:33;100805.00;;;1.70
64960;BMP180;51487;52.266;10.542;2022-12-05T09:47:03;100804.00;;;1.80
64960;BMP180;51487;52.266;10.542;2022-12-05T09:49:47;100799.00;;;1.70
64960;BMP180;51487;52.266;10.542;2022-12-05T09:55:21;100805.00;;;1.60
64960;BMP180;51487;52.266;10.542;2022-12-05T09:57:53;100809.00;;;1.50
64960;BMP180;51487;52.266;10.542;2022-12-05T10:00:21;100802.00;;;1.70
64960;BMP180;51487;52.266;10.542;2022-12-05T10:09:16;100793.00;;;1.70
64960;BMP180;51487;52.266;10.542;2022-12-05T10:15:00;100792.00;;;1.70
64960;BMP180;51487;52.266;10.542;2022-12-05T10:17:37;100793.00;;;1.70
64960;BMP180;51487;52.266;10.542;2022-12-05T10:20:14;100792.00;;;1.60
64960;BMP180;51487;52.266;10.542;2022-12-05T10:22:49;100779.00;;;1.70
64960;BMP180;51487;52.266;10.542;2022-12-05T10:25:21;100783.00;;;1.60
64960;BMP180;51487;52.266;10.542;2022-12-05T10:27:52;100788.00;;;1.70
64960;BMP180;51487;52.266;10.542;2022-12-05T10:30:24;100789.00;;;1.70
64960;BMP180;51487;52.266;10.542;2022-12-05T10:32:59;100802.00;;;1.80
64960;BMP180;51487;52.266;10.542;2022-12-05T10:35:38;100804.00;;;2.00
64960;BMP180;51487;52.266;10.542;2022-12-05T10:38:14;100798.00;;;1.90
64960;BMP180;51487;52.266;10.542;2022-12-05T10:40:50;100785.00;;;2.00
64960;BMP180;51487;52.266;10.542;2022-12-05T10:43:27;100793.00;;;1.90
64960;BMP180;51487;52.266;10.542;2022-12-05T10:45:54;100797.00;;;1.90
64960;BMP180;51487;52.266;10.542;2022-12-05T10:48:21;100798.00;;;1.80
64960;BMP180;51487;52.266;10.542;2022-12-05T10:50:52;100802.00;;;1.90
64960;BMP180;51487;52.266;10.542;2022-12-05T10:55:54;100799.00;;;1.70
64960;BMP180;51487;52.266;10.542;2022-12-05T10:58:25;100804.00;;;1.80
64960;BMP180;51487;52.266;10.542;2022-12-05T11:00:57;100808.00;;;1.90
64960;BMP180;51487;52.266;10.542;2022-12-05T11:03:42;100798.00;;;1.90
64960;BMP180;51487;52.266;10.542;2022-12-05T11:06:14;100795.00;;;2.00
64960;BMP180;51487;52.266;10.542;2022-12-05T11:08:50;100794.00;;;2.00
64960;BMP180;51487;52.266;10.542;2022-12-05T11:11:25;100790.00;;;1.90
64960;BMP180;51487;52.266;10.542;2022-12-05T11:13:59;100796.00;;;1.80
64960;BMP180;51487;52.266;10.542;2022-12-05T11:16:30;100786.00;;;1.90
64960;BMP180;51487;52.266;10.542;2022-12-05T11:21:45;100787.00;;;1.90
64960;BMP180;51487;52.266;10.542;2022-12-05T11:26:55;100784.00;;;1.90
64960;BMP180;51487;52.266;10.542;2022-12-05T11:29:31;100781.00;;;2.00
64960;BMP180;51487;52.266;10.542;2022-12-05T11:32:01;100782.00;;;2.00
64960;BMP180;51487;52.266;10.542;2022-12-05T11:34:40;100778.00;;;2.00
64960;BMP180;51487;52.266;10.542;2022-12-05T11:37:21;100778.00;;;1.90
64960;BMP180;51487;52.266;10.542;2022-12-05T11:39:50;100770.00;;;2.00
64960;BMP180;51487;52.266;10.542;2022-12-05T11:42:25;100772.00;;;2.10
64960;BMP180;51487;52.266;10.542;2022-12-05T11:48:17;100768.00;;;2.20
64960;BMP180;51487;52.266;10.542;2022-12-05T11:56:56;100759.00;;;2.30
64960;BMP180;51487;52.266;10.542;2022-12-05T11:59:54;100759.00;;;2.30
64960;BMP180;51487;52.266;10.542;2022-12-05T12:02:30;100760.00;;;2.40
64960;BMP180;51487;52.266;10.542;2022-12-05T12:05:30;100750.00;;;2.20
64960;BMP180;51487;52.266;10.542;2022-12-05T12:10:48;100760.00;;;2.30
64960;BMP180;51487;52.266;10.542;2022-12-05T12:28:24;100761.00;;;2.40
64960;BMP180;51487;52.266;10.542;2022-12-05T12:31:53;100763.00;;;2.40
64960;BMP180;51487;52.266;10.542;2022-12-05T12:43:03;100763.00;;;2.20
64960;BMP180;51487;52.266;10.542;2022-12-05T12:46:38;100761.00;;;2.20
64960;BMP180;51487;52.266;10.542;2022-12-05T12:51:31;100774.00;;;2.30
64960;BMP180;51487;52.266;10.542;2022-12-05T13:00:05;100769.00;;;2.10
64960;BMP180;51487;52.266;10.542;2022-12-05T13:02:51;100771.00;;;2.00
64960;BMP180;51487;52.266;10.542;2022-12-05T13:05:30;100773.00;;;2.00
64960;BMP180;51487;52.266;10.542;2022-12-05T13:08:03;100769.00;;;2.00
64960;BMP180;51487;52.266;10.542;2022-12-05T13:10:42;100777.00;;;2.00
64960;BMP180;51487;52.266;10.542;2022-12-05T13:13:18;100772.00;;;2.00
64960;BMP180;51487;52.266;10.542;2022-12-05T13:15:52;100761.00;;;2.00
64960;BMP180;51487;52.266;10.542;2022-12-05T13:18:22;100766.00;;;2.00
64960;BMP180;51487;52.266;10.542;2022-12-05T13:20:52;100774.00;;;2.10
64960;BMP180;51487;52.266;10.542;2022-12-05T13:23:22;100763.00;;;2.10
64960;BMP180;51487;52.266;10.542;2022-12-05T13:25:52;100769.00;;;2.10
64960;BMP180;51487;52.266;10.542;2022-12-05T13:28:50;100763.00;;;2.10
64960;BMP180;51487;52.266;10.542;2022-12-05T13:31:34;100757.00;;;2.10
64960;BMP180;51487;52.266;10.542;2022-12-05T13:34:04;100762.00;;;2.10
64960;BMP180;51487;52.266;10.542;2022-12-05T13:36:38;100762.00;;;2.10
64960;BMP180;51487;52.266;10.542;2022-12-05T13:39:23;100768.00;;;2.30
64960;BMP180;51487;52.266;10.542;2022-12-05T13:42:25;100760.00;;;2.20
64960;BMP180;51487;52.266;10.542;2022-12-05T13:45:06;100762.00;;;2.10
64960;BMP180;51487;52.266;10.542;2022-12-05T13:50:33;100768.00;;;2.10
64960;BMP180;51487;52.266;10.542;2022-12-05T13:53:33;100774.00;;;2.10
64960;BMP180;51487;52.266;10.542;2022-12-05T13:58:56;100778.00;;;2.10
64960;BMP180;51487;52.266;10.542;2022-12-05T14:03:58;100774.00;;;2.10
64960;BMP180;51487;52.266;10.542;2022-12-05T14:17:19;100773.00;;;2.20
64960;BMP180;51487;52.266;10.542;2022-12-05T14:34:23;100776.00;;;2.20
64960;BMP180;51487;52.266;10.542;2022-12-05T14:37:22;100763.00;;;2.20
64960;BMP180;51487;52.266;10.542;2022-12-05T14:39:56;100775.00;;;2.30
64960;BMP180;51487;52.266;10.542;2022-12-05T14:45:25;100772.00;;;2.10
64960;BMP180;51487;52.266;10.542;2022-12-05T14:48:00;100777.00;;;2.10
64960;BMP180;51487;52.266;10.542;2022-12-05T14:58:35;100782.00;;;2.00
64960;BMP180;51487;52.266;10.542;2022-12-05T15:04:35;100784.00;;;1.90
64960;BMP180;51487;52.266;10.542;2022-12-05T15:07:11;100780.00;;;2.00
64960;BMP180;51487;52.266;10.542;2022-12-05T15:09:49;100780.00;;;1.80
64960;BMP180;51487;52.266;10.542;2022-12-05T15:12:28;100782.00;;;2.00
64960;BMP180;51487;52.266;10.542;2022-12-05T15:15:04;100788.00;;;1.90
64960;BMP180;51487;52.266;10.542;2022-12-05T15:17:47;100785.00;;;2.10
64960;BMP180;51487;52.266;10.542;2022-12-05T15:22:56;100786.00;;;2.10
64960;BMP180;51487;52.266;10.542;2022-12-05T15:25:28;100787.00;;;2.10
64960;BMP180;51487;52.266;10.542;2022-12-05T15:28:16;100785.00;;;2.10
64960;BMP180;51487;52.266;10.542;2022-12-05T15:30:53;100790.00;;;2.10
64960;BMP180;51487;52.266;10.542;2022-12-05T15:33:21;100788.00;;;2.20
64960;BMP180;51487;52.266;10.542;2022-12-05T15:35:49;100797.00;;;2.20
64960;BMP180;51487;52.266;10.542;2022-12-05T15:38:29;100797.00;;;2.20
64960;BMP180;51487;52.266;10.542;2022-12-05T15:40:58;100801.00;;;2.30
64960;BMP180;51487;52.266;10.542;2022-12-05T15:43:33;100802.00;;;2.30
64960;BMP180;51487;52.266;10.542;2022-12-05T15:46:33;100797.00;;;2.40
64960;BMP180;51487;52.266;10.542;2022-12-05T15:49:15;100801.00;;;2.30
64960;BMP180;51487;52.266;10.542;2022-12-05T15:51:45;100794.00;;;2.40
64960;BMP180;51487;52.266;10.542;2022-12-05T15:54:15;100797.00;;;2.30
64960;BMP180;51487;52.266;10.542;2022-12-05T15:59:36;100794.00;;;2.30
64960;BMP180;51487;52.266;10.542;2022-12-05T16:02:43;100796.00;;;2.30
64960;BMP180;51487;52.266;10.542;2022-12-05T16:05:22;100800.00;;;2.10
64960;BMP180;51487;52.266;10.542;2022-12-05T16:07:53;100808.00;;;2.20
64960;BMP180;51487;52.266;10.542;2022-12-05T16:10:19;100805.00;;;2.20
64960;BMP180;51487;52.266;10.542;2022-12-05T16:12:46;100807.00;;;2.10
64960;BMP180;51487;52.266;10.542;2022-12-05T16:15:22;100806.00;;;2.20
64960;BMP180;51487;52.266;10.542;2022-12-05T16:17:54;100806.00;;;2.20
64960;BMP180;51487;52.266;10.542;2022-12-05T16:20:27;100813.00;;;2.20
64960;BMP180;51487;52.266;10.542;2022-12-05T16:22:57;100810.00;;;2.10
64960;BMP180;51487;52.266;10.542;2022-12-05T16:25:32;100814.00;;;2.30
64960;BMP180;51487;52.266;10.542;2022-12-05T16:28:13;100809.00;;;2.20
64960;BMP180;51487;52.266;10.542;2022-12-05T16:30:55;100809.00;;;2.30
64960;BMP180;51487;52.266;10.542;2022-12-05T16:33:23;100810.00;;;2.30
64960;BMP180;51487;52.266;10.542;2022-12-05T16:35:50;100813.00;;;2.30
64960;BMP180;51487;52.266;10.542;2022-12-05T16:46:06;100806.00;;;2.30
64960;BMP180;51487;52.266;10.542;2022-12-05T16:49:18;100808.00;;;2.20
64960;BMP180;51487;52.266;10.542;2022-12-05T16:54:35;100805.00;;;2.20
64960;BMP180;51487;52.266;10.542;2022-12-05T16:57:02;100797.00;;;2.30
64960;BMP180;51487;52.266;10.542;2022-12-05T16:59:35;100802.00;;;2.30
64960;BMP180;51487;52.266;10.542;2022-12-05T17:02:05;100811.00;;;2.40
64960;BMP180;51487;52.266;10.542;2022-12-05T17:04:34;100808.00;;;2.40
64960;BMP180;51487;52.266;10.542;2022-12-05T17:07:00;100809.00;;;2.40
64960;BMP180;51487;52.266;10.542;2022-12-05T17:09:26;100810.00;;;2.30
64960;BMP180;51487;52.266;10.542;2022-12-05T17:11:55;100806.00;;;2.20
64960;BMP180;51487;52.266;10.542;2022-12-05T17:14:27;100806.00;;;2.20
64960;BMP180;51487;52.266;10.542;2022-12-05T17:16:52;100804.00;;;2.20
64960;BMP180;51487;52.266;10.542;2022-12-05T17:19:17;100803.00;;;2.20
64960;BMP180;51487;52.266;10.542;2022-12-05T17:21:43;100806.00;;;2.10
64960;BMP180;51487;52.266;10.542;2022-12-05T17:24:16;100799.00;;;2.10
64960;BMP180;51487;52.266;10.542;2022-12-05T17:26:43;100810.00;;;2.10
64960;BMP180;51487;52.266;10.542;2022-12-05T17:29:10;100805.00;;;2.20